sensor_id;sensor_type;location;lat;lon;timestamp;temperature;humidity
66522;SHT31;53349;53.538;8.584;2024-03-23T00:52:11;7.79;84.48
66522;SHT31;53349;53.538;8.584;2024-03-23T00:54:37;7.80;84.29
66522;SHT31;53349;53.538;8.584;2024-03-23T00:57:02;7.79;84.26
66522;SHT31;53349;53.538;8.584;2024-03-23T00:59:28;7.80;84.41
66522;SHT31;53349;53.538;8.584;2024-03-23T01:01:53;7.75;84.50
66522;SHT31;53349;53.538;8.584;2024-03-23T01:04:18;7.79;84.54
66522;SHT31;53349;53.538;8.584;2024-03-23T01:06:44;7.76;84.43
66522;SHT31;53349;53.538;8.584;2024-03-23T01:09:09;7.73;84.45
66522;SHT31;53349;53.538;8.584;2024-03-23T01:11:34;7.76;84.51
66522;SHT31;53349;53.538;8.584;2024-03-23T01:14:00;7.75;84.59
66522;SHT31;53349;53.538;8.584;2024-03-23T01:16:25;7.72;84.55
66522;SHT31;53349;53.538;8.584;2024-03-23T01:18:50;7.72;84.54
66522;SHT31;53349;53.538;8.584;2024-03-23T01:21:16;7.69;84.71
66522;SHT31;53349;53.538;8.584;2024-03-23T01:23:41;7.67;84.73
66522;SHT31;53349;53.538;8.584;2024-03-23T01:26:06;7.70;84.45
66522;SHT31;53349;53.538;8.584;2024-03-23T01:28:32;7.65;84.37
66522;SHT31;53349;53.538;8.584;2024-03-23T01:30:57;7.62;84.50
66522;SHT31;53349;53.538;8.584;2024-03-23T01:33:22;7.62;84.52
66522;SHT31;53349;53.538;8.584;2024-03-23T01:35:48;7.62;84.38
66522;SHT31;53349;53.538;8.584;2024-03-23T01:38:13;7.76;83.67
66522;SHT31;53349;53.538;8.584;2024-03-23T01:40:38;7.66;83.83
66522;SHT31;53349;53.538;8.584;2024-03-23T01:43:07;7.62;83.83
66522;SHT31;53349;53.538;8.584;2024-03-23T01:45:33;7.63;83.74
66522;SHT31;53349;53.538;8.584;2024-03-23T01:47:59;7.66;83.71
66522;SHT31;53349;53.538;8.584;2024-03-23T01:50:25;7.67;83.91
66522;SHT31;53349;53.538;8.584;2024-03-23T01:52:50;7.56;84.28
66522;SHT31;53349;53.538;8.584;2024-03-23T01:55:16;7.58;84.11
66522;SHT31;53349;53.538;8.584;2024-03-23T01:57:41;7.55;84.36
66522;SHT31;53349;53.538;8.584;2024-03-23T02:00:07;7.62;84.22
66522;SHT31;53349;53.538;8.584;2024-03-23T02:02:32;7.58;84.27
66522;SHT31;53349;53.538;8.584;2024-03-23T02:04:58;7.59;84.32
66522;SHT31;53349;53.538;8.584;2024-03-23T02:07:24;7.59;84.39
66522;SHT31;53349;53.538;8.584;2024-03-23T02:09:50;7.54;84.42
66522;SHT31;53349;53.538;8.584;2024-03-23T02:12:16;7.52;84.36
66522;SHT31;53349;53.538;8.584;2024-03-23T02:14:42;7.54;84.51
66522;SHT31;53349;53.538;8.584;2024-03-23T02:17:07;7.54;84.56
66522;SHT31;53349;53.538;8.584;2024-03-23T02:19:33;7.49;84.62
66522;SHT31;53349;53.538;8.584;2024-03-23T02:21:59;7.54;84.41
66522;SHT31;53349;53.538;8.584;2024-03-23T02:24:24;7.46;84.27
66522;SHT31;53349;53.538;8.584;2024-03-23T02:26:49;7.51;84.19
66522;SHT31;53349;53.538;8.584;2024-03-23T02:29:15;7.45;84.27
66522;SHT31;53349;53.538;8.584;2024-03-23T02:31:40;7.41;84.27
66522;SHT31;53349;53.538;8.584;2024-03-23T02:34:05;7.45;84.26
66522;SHT31;53349;53.538;8.584;2024-03-23T02:36:31;7.45;84.32
66522;SHT31;53349;53.538;8.584;2024-03-23T02:38:56;7.41;84.07
66522;SHT31;53349;53.538;8.584;2024-03-23T02:41:21;7.41;83.97
66522;SHT31;53349;53.538;8.584;2024-03-23T02:43:49;7.41;83.90
66522;SHT31;53349;53.538;8.584;2024-03-23T02:46:14;7.41;83.96
66522;SHT31;53349;53.538;8.584;2024-03-23T02:48:39;7.34;84.14
66522;SHT31;53349;53.538;8.584;2024-03-23T02:51:05;7.31;83.90
66522;SHT31;53349;53.538;8.584;2024-03-23T02:53:30;7.32;83.71
66522;SHT31;53349;53.538;8.584;2024-03-23T02:55:58;7.34;83.61
66522;SHT31;53349;53.538;8.584;2024-03-23T02:58:23;7.31;83.89
66522;SHT31;53349;53.538;8.584;2024-03-23T03:00:48;7.31;83.99
66522;SHT31;53349;53.538;8.584;2024-03-23T03:03:14;7.25;83.93
66522;SHT31;53349;53.538;8.584;2024-03-23T03:05:39;7.27;83.62
66522;SHT31;53349;53.538;8.584;2024-03-23T03:08:05;7.38;83.02
66522;SHT31;53349;53.538;8.584;2024-03-23T03:10:30;7.38;82.92
66522;SHT31;53349;53.538;8.584;2024-03-23T03:12:55;7.36;82.78
66522;SHT31;53349;53.538;8.584;2024-03-23T03:15:21;7.27;83.28
66522;SHT31;53349;53.538;8.584;2024-03-23T03:17:46;7.24;83.45
66522;SHT31;53349;53.538;8.584;2024-03-23T03:20:11;7.28;83.30
66522;SHT31;53349;53.538;8.584;2024-03-23T03:22:37;7.22;83.22
66522;SHT31;53349;53.538;8.584;2024-03-23T03:25:02;7.22;83.37
66522;SHT31;53349;53.538;8.584;2024-03-23T03:27:27;7.12;83.77
66522;SHT31;53349;53.538;8.584;2024-03-23T03:29:53;7.22;83.67
66522;SHT31;53349;53.538;8.584;2024-03-23T03:32:18;7.12;83.84
66522;SHT31;53349;53.538;8.584;2024-03-23T03:34:43;7.17;83.76
66522;SHT31;53349;53.538;8.584;2024-03-23T03:37:09;7.17;83.75
66522;SHT31;53349;53.538;8.584;2024-03-23T03:39:34;7.11;84.14
66522;SHT31;53349;53.538;8.584;2024-03-23T03:41:59;7.05;84.29
66522;SHT31;53349;53.538;8.584;2024-03-23T03:44:25;7.07;84.17
66522;SHT31;53349;53.538;8.584;2024-03-23T03:46:50;7.07;84.07
66522;SHT31;53349;53.538;8.584;2024-03-23T03:49:15;7.07;83.95
66522;SHT31;53349;53.538;8.584;2024-03-23T03:51:40;7.08;84.30
66522;SHT31;53349;53.538;8.584;2024-03-23T03:54:06;7.14;83.98
66522;SHT31;53349;53.538;8.584;2024-03-23T03:56:31;7.00;84.48
66522;SHT31;53349;53.538;8.584;2024-03-23T03:58:56;7.04;84.36
66522;SHT31;53349;53.538;8.584;2024-03-23T04:01:22;6.98;84.59
66522;SHT31;53349;53.538;8.584;2024-03-23T04:03:47;6.90;84.75
66522;SHT31;53349;53.538;8.584;2024-03-23T04:06:18;6.88;84.97
66522;SHT31;53349;53.538;8.584;2024-03-23T04:08:44;6.83;85.39
66522;SHT31;53349;53.538;8.584;2024-03-23T04:11:09;6.79;85.29
66522;SHT31;53349;53.538;8.584;2024-03-23T04:13:34;6.84;85.10
66522;SHT31;53349;53.538;8.584;2024-03-23T04:16:00;6.86;85.16
66522;SHT31;53349;53.538;8.584;2024-03-23T04:18:25;6.86;85.07
66522;SHT31;53349;53.538;8.584;2024-03-23T04:20:51;6.83;85.03
66522;SHT31;53349;53.538;8.584;2024-03-23T04:23:17;6.75;85.23
66522;SHT31;53349;53.538;8.584;2024-03-23T04:25:42;6.69;85.41
66522;SHT31;53349;53.538;8.584;2024-03-23T04:28:07;6.65;85.45
66522;SHT31;53349;53.538;8.584;2024-03-23T04:30:33;6.67;85.32
66522;SHT31;53349;53.538;8.584;2024-03-23T04:32:58;6.63;85.36
66522;SHT31;53349;53.538;8.584;2024-03-23T04:35:24;6.57;85.52
66522;SHT31;53349;53.538;8.584;2024-03-23T04:37:49;6.57;85.55
66522;SHT31;53349;53.538;8.584;2024-03-23T04:40:15;6.57;85.61
66522;SHT31;53349;53.538;8.584;2024-03-23T04:42:40;6.57;85.55
66522;SHT31;53349;53.538;8.584;2024-03-23T04:45:06;6.49;85.48
66522;SHT31;53349;53.538;8.584;2024-03-23T04:47:31;6.53;85.46
66522;SHT31;53349;53.538;8.584;2024-03-23T04:49:56;6.54;85.63
66522;SHT31;53349;53.538;8.584;2024-03-23T04:52:22;6.56;85.24
66522;SHT31;53349;53.538;8.584;2024-03-23T04:54:47;6.53;85.33
66522;SHT31;53349;53.538;8.584;2024-03-23T04:57:12;6.53;85.57
66522;SHT31;53349;53.538;8.584;2024-03-23T04:59:38;6.53;85.40
66522;SHT31;53349;53.538;8.584;2024-03-23T05:02:03;6.50;85.62
66522;SHT31;53349;53.538;8.584;2024-03-23T05:04:28;6.52;85.37
66522;SHT31;53349;53.538;8.584;2024-03-23T05:06:54;6.60;85.32
66522;SHT31;53349;53.538;8.584;2024-03-23T05:09:19;6.53;85.41
66522;SHT31;53349;53.538;8.584;2024-03-23T05:11:44;6.62;84.81
66522;SHT31;53349;53.538;8.584;2024-03-23T05:14:11;6.65;84.84
66522;SHT31;53349;53.538;8.584;2024-03-23T05:16:37;6.57;84.87
66522;SHT31;53349;53.538;8.584;2024-03-23T05:19:02;6.52;85.29
66522;SHT31;53349;53.538;8.584;2024-03-23T05:21:28;6.57;85.40
66522;SHT31;53349;53.538;8.584;2024-03-23T05:23:53;6.49;85.85
66522;SHT31;53349;53.538;8.584;2024-03-23T05:26:19;6.52;86.16
66522;SHT31;53349;53.538;8.584;2024-03-23T05:28:44;6.48;85.81
66522;SHT31;53349;53.538;8.584;2024-03-23T05:31:09;6.43;86.16
66522;SHT31;53349;53.538;8.584;2024-03-23T05:33:38;6.38;85.96
66522;SHT31;53349;53.538;8.584;2024-03-23T05:36:04;6.43;85.86
66522;SHT31;53349;53.538;8.584;2024-03-23T05:38:29;6.40;85.84
66522;SHT31;53349;53.538;8.584;2024-03-23T05:40:59;6.43;85.79
66522;SHT31;53349;53.538;8.584;2024-03-23T05:43:25;6.42;85.87
66522;SHT31;53349;53.538;8.584;2024-03-23T05:45:54;6.45;85.58
66522;SHT31;53349;53.538;8.584;2024-03-23T05:48:19;6.45;85.48
66522;SHT31;53349;53.538;8.584;2024-03-23T05:50:45;6.38;85.56
66522;SHT31;53349;53.538;8.584;2024-03-23T05:53:10;6.45;85.60
66522;SHT31;53349;53.538;8.584;2024-03-23T05:55:35;6.40;85.80
66522;SHT31;53349;53.538;8.584;2024-03-23T05:58:01;6.35;85.88
66522;SHT31;53349;53.538;8.584;2024-03-23T06:00:26;6.38;85.93
66522;SHT31;53349;53.538;8.584;2024-03-23T06:02:51;6.42;85.82
66522;SHT31;53349;53.538;8.584;2024-03-23T06:05:17;6.45;85.61
66522;SHT31;53349;53.538;8.584;2024-03-23T06:07:42;6.56;85.38
66522;SHT31;53349;53.538;8.584;2024-03-23T06:10:08;6.67;85.01
66522;SHT31;53349;53.538;8.584;2024-03-23T06:12:33;6.69;84.70
66522;SHT31;53349;53.538;8.584;2024-03-23T06:14:59;6.76;84.15
66522;SHT31;53349;53.538;8.584;2024-03-23T06:17:25;6.80;84.23
66522;SHT31;53349;53.538;8.584;2024-03-23T06:19:50;6.87;83.93
66522;SHT31;53349;53.538;8.584;2024-03-23T06:22:15;7.01;83.56
66522;SHT31;53349;53.538;8.584;2024-03-23T06:24:41;7.11;83.03
66522;SHT31;53349;53.538;8.584;2024-03-23T06:27:06;7.22;82.49
66522;SHT31;53349;53.538;8.584;2024-03-23T06:29:32;7.42;81.98
66522;SHT31;53349;53.538;8.584;2024-03-23T06:31:57;7.69;81.29
66522;SHT31;53349;53.538;8.584;2024-03-23T06:34:23;8.13;79.33
66522;SHT31;53349;53.538;8.584;2024-03-23T06:36:48;8.38;78.60
66522;SHT31;53349;53.538;8.584;2024-03-23T06:39:14;8.77;77.41
66522;SHT31;53349;53.538;8.584;2024-03-23T06:41:39;9.19;76.11
66522;SHT31;53349;53.538;8.584;2024-03-23T06:44:04;9.61;74.71
66522;SHT31;53349;53.538;8.584;2024-03-23T06:46:30;9.83;73.51
66522;SHT31;53349;53.538;8.584;2024-03-23T06:48:55;10.09;72.32
66522;SHT31;53349;53.538;8.584;2024-03-23T06:51:20;10.57;70.84
66522;SHT31;53349;53.538;8.584;2024-03-23T06:53:45;10.88;69.38
66522;SHT31;53349;53.538;8.584;2024-03-23T06:56:11;11.36;68.49
66522;SHT31;53349;53.538;8.584;2024-03-23T06:58:37;12.11;66.07
66522;SHT31;53349;53.538;8.584;2024-03-23T07:01:03;12.63;64.23
66522;SHT31;53349;53.538;8.584;2024-03-23T07:03:28;12.43;64.50
66522;SHT31;53349;53.538;8.584;2024-03-23T07:05:57;12.80;63.52
66522;SHT31;53349;53.538;8.584;2024-03-23T07:08:23;13.10;63.58
66522;SHT31;53349;53.538;8.584;2024-03-23T07:10:48;13.32;62.00
66522;SHT31;53349;53.538;8.584;2024-03-23T07:13:13;13.87;61.44
66522;SHT31;53349;53.538;8.584;2024-03-23T07:15:39;13.97;60.55
66522;SHT31;53349;53.538;8.584;2024-03-23T07:18:04;13.87;60.31
66522;SHT31;53349;53.538;8.584;2024-03-23T07:20:30;13.90;60.03
66522;SHT31;53349;53.538;8.584;2024-03-23T07:22:55;14.07;59.57
66522;SHT31;53349;53.538;8.584;2024-03-23T07:25:20;13.93;58.93
66522;SHT31;53349;53.538;8.584;2024-03-23T07:27:46;14.05;58.91
66522;SHT31;53349;53.538;8.584;2024-03-23T07:30:11;14.26;58.67
66522;SHT31;53349;53.538;8.584;2024-03-23T07:32:36;14.13;58.87
66522;SHT31;53349;53.538;8.584;2024-03-23T07:35:02;13.87;59.15
66522;SHT31;53349;53.538;8.584;2024-03-23T07:37:27;14.13;58.60
66522;SHT31;53349;53.538;8.584;2024-03-23T07:39:52;14.10;58.27
66522;SHT31;53349;53.538;8.584;2024-03-23T07:42:18;13.79;58.98
66522;SHT31;53349;53.538;8.584;2024-03-23T07:44:43;13.61;60.09
66522;SHT31;53349;53.538;8.584;2024-03-23T07:47:08;13.87;59.67
66522;SHT31;53349;53.538;8.584;2024-03-23T07:49:34;13.51;60.20
66522;SHT31;53349;53.538;8.584;2024-03-23T07:51:59;13.96;59.52
66522;SHT31;53349;53.538;8.584;2024-03-23T07:54:24;13.91;59.21
66522;SHT31;53349;53.538;8.584;2024-03-23T07:56:49;13.08;61.24
66522;SHT31;53349;53.538;8.584;2024-03-23T07:59:15;12.57;62.55
66522;SHT31;53349;53.538;8.584;2024-03-23T08:01:40;12.33;63.78
66522;SHT31;53349;53.538;8.584;2024-03-23T08:04:05;12.20;63.88
66522;SHT31;53349;53.538;8.584;2024-03-23T08:06:31;12.35;63.48
66522;SHT31;53349;53.538;8.584;2024-03-23T08:08:57;12.26;63.76
66522;SHT31;53349;53.538;8.584;2024-03-23T08:11:22;12.42;62.92
66522;SHT31;53349;53.538;8.584;2024-03-23T08:13:47;12.76;62.02
66522;SHT31;53349;53.538;8.584;2024-03-23T08:16:13;12.93;61.48
66522;SHT31;53349;53.538;8.584;2024-03-23T08:18:39;13.03;60.91
66522;SHT31;53349;53.538;8.584;2024-03-23T08:21:05;13.24;60.65
66522;SHT31;53349;53.538;8.584;2024-03-23T08:23:35;13.59;60.08
66522;SHT31;53349;53.538;8.584;2024-03-23T08:26:01;13.85;60.00
66522;SHT31;53349;53.538;8.584;2024-03-23T08:28:27;14.06;59.29
66522;SHT31;53349;53.538;8.584;2024-03-23T08:30:53;14.12;58.61
66522;SHT31;53349;53.538;8.584;2024-03-23T08:33:19;14.18;57.90
66522;SHT31;53349;53.538;8.584;2024-03-23T08:35:59;14.36;57.66
66522;SHT31;53349;53.538;8.584;2024-03-23T08:38:25;14.52;56.05
66522;SHT31;53349;53.538;8.584;2024-03-23T08:43:48;15.03;54.69
66522;SHT31;53349;53.538;8.584;2024-03-23T08:46:15;15.37;54.15
66522;SHT31;53349;53.538;8.584;2024-03-23T08:48:45;15.44;52.73
66522;SHT31;53349;53.538;8.584;2024-03-23T08:51:13;15.40;51.95
66522;SHT31;53349;53.538;8.584;2024-03-23T08:53:38;15.47;51.68
66522;SHT31;53349;53.538;8.584;2024-03-23T08:56:05;16.08;49.86
66522;SHT31;53349;53.538;8.584;2024-03-23T08:58:31;16.66;49.47
66522;SHT31;53349;53.538;8.584;2024-03-23T09:01:02;16.06;50.30
66522;SHT31;53349;53.538;8.584;2024-03-23T09:03:28;16.70;48.51
66522;SHT31;53349;53.538;8.584;2024-03-23T09:05:54;15.97;49.59
66522;SHT31;53349;53.538;8.584;2024-03-23T09:08:19;16.42;48.85
66522;SHT31;53349;53.538;8.584;2024-03-23T09:10:44;17.08;46.85
66522;SHT31;53349;53.538;8.584;2024-03-23T09:13:10;17.01;47.24
66522;SHT31;53349;53.538;8.584;2024-03-23T09:15:37;17.12;47.78
66522;SHT31;53349;53.538;8.584;2024-03-23T09:18:03;17.12;47.80
66522;SHT31;53349;53.538;8.584;2024-03-23T09:20:32;17.10;47.86
66522;SHT31;53349;53.538;8.584;2024-03-23T09:22:58;15.94;50.48
66522;SHT31;53349;53.538;8.584;2024-03-23T09:25:23;16.34;49.18
66522;SHT31;53349;53.538;8.584;2024-03-23T09:27:50;16.52;49.23
66522;SHT31;53349;53.538;8.584;2024-03-23T09:30:15;16.18;49.57
66522;SHT31;53349;53.538;8.584;2024-03-23T09:32:43;15.58;51.77
66522;SHT31;53349;53.538;8.584;2024-03-23T09:35:08;15.05;52.73
66522;SHT31;53349;53.538;8.584;2024-03-23T09:37:33;14.54;54.12
66522;SHT31;53349;53.538;8.584;2024-03-23T09:39:59;14.88;54.60
66522;SHT31;53349;53.538;8.584;2024-03-23T09:42:24;15.78;51.65
66522;SHT31;53349;53.538;8.584;2024-03-23T09:44:51;16.16;51.14
66522;SHT31;53349;53.538;8.584;2024-03-23T09:47:17;15.95;49.70
66522;SHT31;53349;53.538;8.584;2024-03-23T09:49:42;15.29;51.81
66522;SHT31;53349;53.538;8.584;2024-03-23T09:52:08;14.99;52.00
66522;SHT31;53349;53.538;8.584;2024-03-23T09:54:33;15.00;52.87
66522;SHT31;53349;53.538;8.584;2024-03-23T09:56:59;14.88;53.02
66522;SHT31;53349;53.538;8.584;2024-03-23T09:59:24;15.94;50.93
66522;SHT31;53349;53.538;8.584;2024-03-23T10:01:49;15.58;50.44
66522;SHT31;53349;53.538;8.584;2024-03-23T10:04:37;16.15;47.78
66522;SHT31;53349;53.538;8.584;2024-03-23T10:07:13;16.12;47.94
66522;SHT31;53349;53.538;8.584;2024-03-23T10:09:39;15.80;49.60
66522;SHT31;53349;53.538;8.584;2024-03-23T10:12:09;16.42;48.64
66522;SHT31;53349;53.538;8.584;2024-03-23T10:14:35;16.66;47.68
66522;SHT31;53349;53.538;8.584;2024-03-23T10:17:22;16.40;48.16
66522;SHT31;53349;53.538;8.584;2024-03-23T10:19:49;15.67;50.39
66522;SHT31;53349;53.538;8.584;2024-03-23T10:22:19;15.22;51.74
66522;SHT31;53349;53.538;8.584;2024-03-23T10:24:45;15.07;50.96
66522;SHT31;53349;53.538;8.584;2024-03-23T10:27:21;15.68;50.51
66522;SHT31;53349;53.538;8.584;2024-03-23T10:29:47;15.72;50.29
66522;SHT31;53349;53.538;8.584;2024-03-23T10:32:14;15.49;50.52
66522;SHT31;53349;53.538;8.584;2024-03-23T10:34:40;15.42;50.52
66522;SHT31;53349;53.538;8.584;2024-03-23T10:37:06;15.58;48.23
66522;SHT31;53349;53.538;8.584;2024-03-23T10:39:37;15.10;49.27
66522;SHT31;53349;53.538;8.584;2024-03-23T10:42:04;14.55;50.27
66522;SHT31;53349;53.538;8.584;2024-03-23T10:44:31;14.34;51.09
66522;SHT31;53349;53.538;8.584;2024-03-23T10:47:00;14.18;52.05
66522;SHT31;53349;53.538;8.584;2024-03-23T10:49:27;14.14;52.36
66522;SHT31;53349;53.538;8.584;2024-03-23T10:51:52;14.24;51.53
66522;SHT31;53349;53.538;8.584;2024-03-23T10:54:19;13.96;52.85
66522;SHT31;53349;53.538;8.584;2024-03-23T10:56:45;14.06;51.92
66522;SHT31;53349;53.538;8.584;2024-03-23T10:59:12;13.32;53.83
66522;SHT31;53349;53.538;8.584;2024-03-23T11:01:54;12.77;58.78
66522;SHT31;53349;53.538;8.584;2024-03-23T11:04:48;12.45;60.51
66522;SHT31;53349;53.538;8.584;2024-03-23T11:09:52;12.28;60.59
66522;SHT31;53349;53.538;8.584;2024-03-23T11:14:54;11.47;60.77
66522;SHT31;53349;53.538;8.584;2024-03-23T11:17:24;11.46;60.75
66522;SHT31;53349;53.538;8.584;2024-03-23T11:20:08;11.22;59.31
66522;SHT31;53349;53.538;8.584;2024-03-23T11:22:41;10.95;60.52
66522;SHT31;53349;53.538;8.584;2024-03-23T11:25:17;10.79;59.83
66522;SHT31;53349;53.538;8.584;2024-03-23T11:27:44;11.11;60.41
66522;SHT31;53349;53.538;8.584;2024-03-23T11:32:36;12.06;59.18
66522;SHT31;53349;53.538;8.584;2024-03-23T11:35:02;11.97;59.09
66522;SHT31;53349;53.538;8.584;2024-03-23T11:37:27;12.04;58.57
66522;SHT31;53349;53.538;8.584;2024-03-23T11:39:53;12.05;58.33
66522;SHT31;53349;53.538;8.584;2024-03-23T11:42:18;11.70;59.73
66522;SHT31;53349;53.538;8.584;2024-03-23T11:44:43;11.46;60.66
66522;SHT31;53349;53.538;8.584;2024-03-23T11:47:09;11.15;60.39
66522;SHT31;53349;53.538;8.584;2024-03-23T11:49:34;10.92;61.23
66522;SHT31;53349;53.538;8.584;2024-03-23T11:52:00;10.88;60.14
66522;SHT31;53349;53.538;8.584;2024-03-23T11:54:26;10.50;60.02
66522;SHT31;53349;53.538;8.584;2024-03-23T11:56:59;10.16;61.59
66522;SHT31;53349;53.538;8.584;2024-03-23T12:01:59;9.68;64.24
66522;SHT31;53349;53.538;8.584;2024-03-23T12:04:28;9.70;64.08
66522;SHT31;53349;53.538;8.584;2024-03-23T12:09:38;9.70;64.32
66522;SHT31;53349;53.538;8.584;2024-03-23T12:12:17;9.92;63.57
66522;SHT31;53349;53.538;8.584;2024-03-23T12:15:05;10.26;63.13
66522;SHT31;53349;53.538;8.584;2024-03-23T12:17:30;10.57;62.44
66522;SHT31;53349;53.538;8.584;2024-03-23T12:19:55;10.63;61.18
66522;SHT31;53349;53.538;8.584;2024-03-23T12:22:21;10.54;61.05
66522;SHT31;53349;53.538;8.584;2024-03-23T12:24:47;10.53;60.53
66522;SHT31;53349;53.538;8.584;2024-03-23T12:27:13;10.40;60.93
66522;SHT31;53349;53.538;8.584;2024-03-23T12:29:38;10.26;60.99
66522;SHT31;53349;53.538;8.584;2024-03-23T12:32:04;9.86;62.20
66522;SHT31;53349;53.538;8.584;2024-03-23T12:34:29;9.72;63.48
66522;SHT31;53349;53.538;8.584;2024-03-23T12:36:54;9.74;63.70
66522;SHT31;53349;53.538;8.584;2024-03-23T12:39:20;9.89;63.46
66522;SHT31;53349;53.538;8.584;2024-03-23T12:41:45;10.05;63.36
66522;SHT31;53349;53.538;8.584;2024-03-23T12:44:11;10.23;62.55
66522;SHT31;53349;53.538;8.584;2024-03-23T12:46:36;10.40;62.81
66522;SHT31;53349;53.538;8.584;2024-03-23T12:49:02;10.33;62.78
66522;SHT31;53349;53.538;8.584;2024-03-23T12:51:27;10.39;62.39
66522;SHT31;53349;53.538;8.584;2024-03-23T12:53:52;10.56;64.09
66522;SHT31;53349;53.538;8.584;2024-03-23T12:56:17;10.72;62.61
66522;SHT31;53349;53.538;8.584;2024-03-23T12:58:43;10.63;61.85
66522;SHT31;53349;53.538;8.584;2024-03-23T13:01:08;10.78;62.15
66522;SHT31;53349;53.538;8.584;2024-03-23T13:03:33;10.87;62.55
66522;SHT31;53349;53.538;8.584;2024-03-23T13:05:59;10.78;63.60
66522;SHT31;53349;53.538;8.584;2024-03-23T13:08:24;10.84;63.39
66522;SHT31;53349;53.538;8.584;2024-03-23T13:10:53;10.63;62.95
66522;SHT31;53349;53.538;8.584;2024-03-23T13:13:18;10.77;63.10
66522;SHT31;53349;53.538;8.584;2024-03-23T13:15:50;10.60;63.07
66522;SHT31;53349;53.538;8.584;2024-03-23T13:18:15;10.41;64.10
66522;SHT31;53349;53.538;8.584;2024-03-23T13:20:40;10.28;64.76
66522;SHT31;53349;53.538;8.584;2024-03-23T13:23:06;10.10;65.93
66522;SHT31;53349;53.538;8.584;2024-03-23T13:25:31;9.81;64.49
66522;SHT31;53349;53.538;8.584;2024-03-23T13:27:56;9.78;66.35
66522;SHT31;53349;53.538;8.584;2024-03-23T13:30:21;9.74;67.69
66522;SHT31;53349;53.538;8.584;2024-03-23T13:32:47;9.65;69.32
66522;SHT31;53349;53.538;8.584;2024-03-23T13:35:12;9.59;70.57
66522;SHT31;53349;53.538;8.584;2024-03-23T13:37:37;9.51;70.43
66522;SHT31;53349;53.538;8.584;2024-03-23T13:40:03;9.62;71.46
66522;SHT31;53349;53.538;8.584;2024-03-23T13:42:29;9.78;70.88
66522;SHT31;53349;53.538;8.584;2024-03-23T13:44:54;9.98;70.09
66522;SHT31;53349;53.538;8.584;2024-03-23T13:47:19;9.98;70.36
66522;SHT31;53349;53.538;8.584;2024-03-23T13:49:44;10.12;70.14
66522;SHT31;53349;53.538;8.584;2024-03-23T13:52:10;10.00;69.49
66522;SHT31;53349;53.538;8.584;2024-03-23T13:54:35;10.03;69.98
66522;SHT31;53349;53.538;8.584;2024-03-23T13:57:00;9.98;68.62
66522;SHT31;53349;53.538;8.584;2024-03-23T13:59:26;10.02;66.95
66522;SHT31;53349;53.538;8.584;2024-03-23T14:01:51;10.05;67.84
66522;SHT31;53349;53.538;8.584;2024-03-23T14:04:17;9.93;66.58
66522;SHT31;53349;53.538;8.584;2024-03-23T14:06:43;10.02;67.89
66522;SHT31;53349;53.538;8.584;2024-03-23T14:09:08;10.10;67.59
66522;SHT31;53349;53.538;8.584;2024-03-23T14:11:35;10.02;67.61
66522;SHT31;53349;53.538;8.584;2024-03-23T14:14:00;10.13;67.66
66522;SHT31;53349;53.538;8.584;2024-03-23T14:16:25;9.99;67.25
66522;SHT31;53349;53.538;8.584;2024-03-23T14:18:51;10.13;66.86
66522;SHT31;53349;53.538;8.584;2024-03-23T14:21:16;10.20;67.27
66522;SHT31;53349;53.538;8.584;2024-03-23T14:23:41;10.26;67.60
66522;SHT31;53349;53.538;8.584;2024-03-23T14:26:07;10.12;66.33
66522;SHT31;53349;53.538;8.584;2024-03-23T14:28:32;9.89;64.88
66522;SHT31;53349;53.538;8.584;2024-03-23T14:30:57;9.70;65.46
66522;SHT31;53349;53.538;8.584;2024-03-23T14:33:23;9.72;65.78
66522;SHT31;53349;53.538;8.584;2024-03-23T14:35:55;9.59;66.96
66522;SHT31;53349;53.538;8.584;2024-03-23T14:38:20;9.59;65.43
66522;SHT31;53349;53.538;8.584;2024-03-23T14:40:46;9.26;65.98
66522;SHT31;53349;53.538;8.584;2024-03-23T14:43:11;9.12;67.50
66522;SHT31;53349;53.538;8.584;2024-03-23T14:45:37;9.07;66.42
66522;SHT31;53349;53.538;8.584;2024-03-23T14:48:02;9.02;66.18
66522;SHT31;53349;53.538;8.584;2024-03-23T14:50:28;8.92;67.15
66522;SHT31;53349;53.538;8.584;2024-03-23T14:52:53;8.85;68.52
66522;SHT31;53349;53.538;8.584;2024-03-23T14:55:18;8.92;68.25
66522;SHT31;53349;53.538;8.584;2024-03-23T14:57:44;8.93;69.33
66522;SHT31;53349;53.538;8.584;2024-03-23T15:00:09;8.93;68.68
66522;SHT31;53349;53.538;8.584;2024-03-23T15:02:35;9.06;66.85
66522;SHT31;53349;53.538;8.584;2024-03-23T15:05:01;9.10;67.76
66522;SHT31;53349;53.538;8.584;2024-03-23T15:07:26;9.16;66.82
66522;SHT31;53349;53.538;8.584;2024-03-23T15:09:51;9.19;65.92
66522;SHT31;53349;53.538;8.584;2024-03-23T15:12:17;9.13;66.35
66522;SHT31;53349;53.538;8.584;2024-03-23T15:14:42;9.06;66.44
66522;SHT31;53349;53.538;8.584;2024-03-23T15:17:07;9.03;67.36
66522;SHT31;53349;53.538;8.584;2024-03-23T15:19:32;8.94;68.40
66522;SHT31;53349;53.538;8.584;2024-03-23T15:21:58;8.89;68.46
66522;SHT31;53349;53.538;8.584;2024-03-23T15:24:23;8.85;68.55
66522;SHT31;53349;53.538;8.584;2024-03-23T15:26:48;8.89;68.13
66522;SHT31;53349;53.538;8.584;2024-03-23T15:29:14;9.09;67.60
66522;SHT31;53349;53.538;8.584;2024-03-23T15:31:39;9.07;67.32
66522;SHT31;53349;53.538;8.584;2024-03-23T15:34:04;8.97;67.03
66522;SHT31;53349;53.538;8.584;2024-03-23T15:36:30;8.99;67.70
66522;SHT31;53349;53.538;8.584;2024-03-23T15:38:55;9.02;68.34
66522;SHT31;53349;53.538;8.584;2024-03-23T15:41:21;9.00;68.00
66522;SHT31;53349;53.538;8.584;2024-03-23T15:43:46;9.09;68.83
66522;SHT31;53349;53.538;8.584;2024-03-23T15:46:11;9.24;68.47
66522;SHT31;53349;53.538;8.584;2024-03-23T15:48:37;9.20;68.88
66522;SHT31;53349;53.538;8.584;2024-03-23T15:51:03;9.17;69.07
66522;SHT31;53349;53.538;8.584;2024-03-23T15:53:28;9.04;69.20
66522;SHT31;53349;53.538;8.584;2024-03-23T15:56:00;9.03;69.81
66522;SHT31;53349;53.538;8.584;2024-03-23T15:58:26;9.02;69.88
66522;SHT31;53349;53.538;8.584;2024-03-23T16:03:20;8.97;70.21
66522;SHT31;53349;53.538;8.584;2024-03-23T16:08:17;8.79;72.63
66522;SHT31;53349;53.538;8.584;2024-03-23T16:10:42;8.68;71.55
66522;SHT31;53349;53.538;8.584;2024-03-23T16:13:08;8.71;71.81
66522;SHT31;53349;53.538;8.584;2024-03-23T16:15:33;8.68;73.14
66522;SHT31;53349;53.538;8.584;2024-03-23T16:17:58;8.62;73.89
66522;SHT31;53349;53.538;8.584;2024-03-23T16:20:24;8.71;74.11
66522;SHT31;53349;53.538;8.584;2024-03-23T16:22:49;8.85;73.50
66522;SHT31;53349;53.538;8.584;2024-03-23T16:25:14;8.85;73.49
66522;SHT31;53349;53.538;8.584;2024-03-23T16:27:40;8.85;73.16
66522;SHT31;53349;53.538;8.584;2024-03-23T16:30:05;8.87;73.10
66522;SHT31;53349;53.538;8.584;2024-03-23T16:32:31;8.68;73.03
66522;SHT31;53349;53.538;8.584;2024-03-23T16:34:56;8.72;73.03
66522;SHT31;53349;53.538;8.584;2024-03-23T16:37:21;8.61;73.80
66522;SHT31;53349;53.538;8.584;2024-03-23T16:39:47;8.58;74.05
66522;SHT31;53349;53.538;8.584;2024-03-23T16:42:12;8.61;74.04
66522;SHT31;53349;53.538;8.584;2024-03-23T16:44:37;8.52;74.59